Time;durP1;ratioP1;P1;durP2;ratioP2;P2;SDS_P1;SDS_P2;PMS_P1;PMS_P2;Temp;Humidity;BMP_temperature;BMP_pressure;BME280_temperature;BME280_humidity;BME280_pressure;Samples;Min_cycle;Max_cycle;Signal;HPM_P1;HPM_P2
2021/04/09 00:02:07;;;;;;;6.05;3.45;;;4.50;99.90;;;;;;5052560;28;20657;-87
2021/04/09 00:04:35;;;;;;;6.97;4.55;;;4.40;99.90;;;;;;5052571;28;20193;-87
2021/04/09 00:07:01;;;;;;;6.00;3.65;;;4.40;99.90;;;;;;5052419;28;20190;-88
2021/04/09 00:09:27;;;;;;;8.38;3.65;;;4.40;99.90;;;;;;5052394;28;20190;-88
2021/04/09 00:11:54;;;;;;;7.22;4.38;;;4.40;99.90;;;;;;5052555;28;20201;-88
2021/04/09 00:14:20;;;;;;;4.18;3.63;;;4.40;99.90;;;;;;5051739;28;20218;-88
2021/04/09 00:16:47;;;;;;;6.97;3.78;;;4.40;99.90;;;;;;5052225;28;20197;-87
2021/04/09 00:19:15;;;;;;;7.63;4.07;;;4.30;99.90;;;;;;5052590;28;20186;-87
2021/04/09 00:21:44;;;;;;;4.75;3.65;;;4.30;99.90;;;;;;5052259;28;20194;-87
2021/04/09 00:24:10;;;;;;;4.13;3.70;;;4.20;99.90;;;;;;5052704;28;20221;-87
2021/04/09 00:26:37;;;;;;;4.47;3.72;;;4.20;99.90;;;;;;5052122;28;20653;-87
2021/04/09 00:29:05;;;;;;;4.70;3.80;;;4.20;99.90;;;;;;5055247;28;20665;-88
2021/04/09 00:31:31;;;;;;;5.25;3.85;;;4.20;99.90;;;;;;5056293;28;20201;-87
2021/04/09 00:33:57;;;;;;;4.75;3.10;;;4.20;99.90;;;;;;5055786;28;20707;-87
2021/04/09 00:36:23;;;;;;;5.20;3.35;;;4.20;99.90;;;;;;5056054;28;20201;-88
2021/04/09 00:38:50;;;;;;;4.55;3.42;;;4.10;99.90;;;;;;5055979;28;20194;-87
2021/04/09 00:41:17;;;;;;;5.40;4.25;;;4.10;99.90;;;;;;5056215;28;20240;-86
2021/04/09 00:43:43;;;;;;;7.43;4.68;;;4.40;99.90;;;;;;5055944;28;20240;-86
2021/04/09 00:46:09;;;;;;;6.25;4.20;;;4.10;99.90;;;;;;5055946;28;20262;-87
2021/04/09 00:48:35;;;;;;;5.43;3.85;;;4.00;99.90;;;;;;5056043;28;20186;-88
2021/04/09 00:51:02;;;;;;;6.60;3.70;;;4.00;99.90;;;;;;5055864;28;20201;-88
2021/04/09 00:53:28;;;;;;;4.38;3.85;;;4.00;99.90;;;;;;5055954;28;20217;-86
2021/04/09 00:55:55;;;;;;;4.95;4.07;;;4.00;99.90;;;;;;5055608;28;20697;-87
2021/04/09 00:58:22;;;;;;;5.13;4.10;;;3.90;99.90;;;;;;5055628;28;20221;-86
2021/04/09 01:00:48;;;;;;;5.32;4.07;;;3.90;99.90;;;;;;5055791;28;20201;-87
2021/04/09 01:03:15;;;;;;;4.72;4.25;;;3.90;99.90;;;;;;5055710;28;20236;-87
2021/04/09 01:05:41;;;;;;;5.93;4.43;;;3.90;99.90;;;;;;5055866;28;20198;-87
2021/04/09 01:08:08;;;;;;;5.93;3.95;;;3.80;99.90;;;;;;5055567;28;20193;-86
2021/04/09 01:10:34;;;;;;;5.30;3.95;;;3.80;99.90;;;;;;5056072;28;20657;-89
2021/04/09 01:13:01;;;;;;;5.22;4.15;;;3.80;99.90;;;;;;5056023;28;20621;-89
2021/04/09 01:15:27;;;;;;;4.30;3.90;;;4.10;99.90;;;;;;5056096;28;20236;-89
2021/04/09 01:17:59;;;;;;;4.45;4.05;;;3.80;99.90;;;;;;5055381;28;20228;-88
2021/04/09 01:20:30;;;;;;;4.20;3.85;;;3.70;99.90;;;;;;5056052;28;20183;-88
2021/04/09 01:23:13;;;;;;;6.88;4.50;;;3.70;99.90;;;;;;5055548;28;20189;-87
2021/04/09 01:26:05;;;;;;;5.53;3.90;;;3.60;99.90;;;;;;5055254;28;20644;-87
2021/04/09 01:28:37;;;;;;;4.38;3.75;;;3.50;99.90;;;;;;5051687;28;20657;-88
2021/04/09 01:31:27;;;;;;;4.18;3.83;;;3.50;99.90;;;;;;5055600;28;20604;-90
2021/04/09 01:33:58;;;;;;;7.25;4.25;;;3.50;99.90;;;;;;5055053;28;20572;-88
2021/04/09 01:36:29;;;;;;;8.70;3.72;;;3.50;99.90;;;;;;5055242;28;20190;-88
2021/04/09 01:39:02;;;;;;;5.10;3.72;;;3.40;99.90;;;;;;5054712;28;20205;-88
2021/04/09 01:41:30;;;;;;;5.22;3.78;;;3.40;99.90;;;;;;5055418;28;20236;-88
2021/04/09 01:44:01;;;;;;;5.85;4.50;;;3.40;99.90;;;;;;5055372;28;20213;-88
2021/04/09 01:46:28;;;;;;;6.65;4.38;;;3.40;99.90;;;;;;5055401;28;20266;-88
2021/04/09 01:48:55;;;;;;;4.72;4.25;;;3.40;99.90;;;;;;5055266;28;20271;-88
2021/04/09 01:51:22;;;;;;;5.88;4.30;;;3.40;99.90;;;;;;5054702;28;20194;-88
2021/04/09 01:53:49;;;;;;;5.80;4.22;;;3.40;99.90;;;;;;5054393;28;20249;-88
2021/04/09 01:56:17;;;;;;;8.18;3.97;;;3.30;99.90;;;;;;5054869;28;20279;-88
2021/04/09 01:58:44;;;;;;;4.75;4.00;;;3.30;99.90;;;;;;5054507;28;20692;-88
2021/04/09 02:01:12;;;;;;;4.55;4.13;;;4.00;99.90;;;;;;5054972;28;20277;-87
2021/04/09 02:03:40;;;;;;;5.55;4.03;;;3.30;99.90;;;;;;5054848;28;20244;-87
2021/04/09 02:06:08;;;;;;;6.28;4.10;;;3.30;99.90;;;;;;5054296;28;20194;-88
2021/04/09 02:08:36;;;;;;;4.65;4.25;;;3.20;99.90;;;;;;5054788;28;20226;-87
2021/04/09 02:11:03;;;;;;;7.57;3.80;;;3.30;99.90;;;;;;5054772;28;20190;-87
2021/04/09 02:13:32;;;;;;;8.15;4.63;;;3.30;99.90;;;;;;5054657;28;20256;-87
2021/04/09 02:15:59;;;;;;;6.95;4.38;;;3.30;99.90;;;;;;5054327;28;20228;-88
2021/04/09 02:18:25;;;;;;;7.20;4.82;;;3.30;99.90;;;;;;5054480;28;20220;-88
2021/04/09 02:20:52;;;;;;;7.10;4.38;;;3.30;99.90;;;;;;5054771;28;20557;-87
2021/04/09 02:23:20;;;;;;;5.47;4.47;;;3.30;99.90;;;;;;5054672;28;20190;-88
2021/04/09 02:25:46;;;;;;;7.43;3.58;;;3.30;99.90;;;;;;5054714;28;20588;-87
2021/04/09 02:28:12;;;;;;;6.97;3.80;;;3.40;99.90;;;;;;5054232;28;20194;-86
2021/04/09 02:30:39;;;;;;;4.32;3.92;;;3.30;99.90;;;;;;5054198;28;20221;-88
2021/04/09 02:33:06;;;;;;;6.88;4.00;;;3.30;99.90;;;;;;5054256;28;20221;-89
2021/04/09 02:35:32;;;;;;;5.90;3.72;;;3.30;99.90;;;;;;5054428;28;20673;-88
2021/04/09 02:37:59;;;;;;;5.95;4.50;;;3.30;99.90;;;;;;5054212;28;20201;-88
2021/04/09 02:40:31;;;;;;;5.93;3.90;;;3.20;99.90;;;;;;5053987;28;20204;-88
2021/04/09 02:42:57;;;;;;;7.28;4.07;;;3.20;99.90;;;;;;5053974;28;20198;-88
2021/04/09 02:45:25;;;;;;;5.40;4.30;;;3.20;99.90;;;;;;5053551;28;20243;-88
2021/04/09 02:47:54;;;;;;;5.10;3.65;;;3.20;99.90;;;;;;5053944;28;20264;-87
2021/04/09 02:50:32;;;;;;;4.07;3.50;;;3.20;99.90;;;;;;5052941;28;20281;-88
2021/04/09 02:53:02;;;;;;;5.07;3.55;;;3.20;99.90;;;;;;5053621;28;20216;-88
2021/04/09 02:55:33;;;;;;;4.07;3.58;;;3.20;99.90;;;;;;5053551;28;20226;-88
2021/04/09 02:58:01;;;;;;;4.30;3.90;;;3.20;99.90;;;;;;5054018;28;20224;-88
2021/04/09 03:00:28;;;;;;;4.45;4.05;;;3.20;99.90;;;;;;5053970;28;20226;-89
2021/04/09 03:02:55;;;;;;;6.55;3.80;;;3.10;99.90;;;;;;5054025;28;20645;-88
2021/04/09 03:05:23;;;;;;;4.70;3.67;;;3.10;99.90;;;;;;5053720;28;20221;-88
2021/04/09 03:07:49;;;;;;;5.43;3.55;;;3.10;99.90;;;;;;5053738;28;20190;-87
2021/04/09 03:10:17;;;;;;;3.95;3.25;;;3.10;99.90;;;;;;5053615;28;20233;-86
2021/04/09 03:12:44;;;;;;;5.38;4.38;;;3.20;99.90;;;;;;5053208;28;20224;-86
2021/04/09 03:15:19;;;;;;;3.47;3.20;;;3.10;99.90;;;;;;5053393;28;20193;-85
2021/04/09 03:17:53;;;;;;;4.40;3.97;;;3.10;99.90;;;;;;5053731;28;20194;-87
2021/04/09 03:20:20;;;;;;;4.45;4.05;;;3.00;99.90;;;;;;5053602;28;20713;-87
2021/04/09 03:22:47;;;;;;;4.35;3.53;;;3.00;99.90;;;;;;5052803;28;20190;-85
2021/04/09 03:25:13;;;;;;;3.80;3.50;;;3.10;99.90;;;;;;5052609;28;20564;-85
2021/04/09 03:27:39;;;;;;;4.85;3.95;;;3.00;99.90;;;;;;5052986;28;20197;-85
2021/04/09 03:30:08;;;;;;;5.13;4.30;;;3.00;99.90;;;;;;5050669;28;20293;-85
2021/04/09 03:32:35;;;;;;;4.45;4.05;;;3.00;99.90;;;;;;5052302;28;20241;-87
2021/04/09 03:35:01;;;;;;;7.13;4.00;;;3.00;99.90;;;;;;5053798;28;20210;-90
2021/04/09 03:37:27;;;;;;;5.50;3.80;;;3.00;99.90;;;;;;5053941;28;20260;-93
2021/04/09 03:39:53;;;;;;;4.45;3.28;;;3.00;99.90;;;;;;5054242;28;20214;-93
2021/04/09 03:42:19;;;;;;;3.45;3.17;;;3.00;99.90;;;;;;5054222;28;20186;-93
2021/04/09 03:44:45;;;;;;;6.38;3.33;;;3.00;99.90;;;;;;5053181;28;20276;-88
2021/04/09 03:47:12;;;;;;;4.30;3.90;;;2.90;99.90;;;;;;5053066;28;20518;-88
2021/04/09 03:49:38;;;;;;;3.78;3.42;;;2.90;99.90;;;;;;5052643;28;20186;-88
2021/04/09 03:52:05;;;;;;;5.38;4.35;;;3.00;99.90;;;;;;5053363;28;20247;-90
2021/04/09 03:54:31;;;;;;;5.10;3.15;;;2.90;99.90;;;;;;5053240;28;20222;-89
2021/04/09 03:56:57;;;;;;;4.82;3.85;;;2.90;99.90;;;;;;5053352;28;20688;-91
2021/04/09 03:59:24;;;;;;;4.18;3.78;;;2.90;99.90;;;;;;5053138;28;20280;-87
2021/04/09 04:01:50;;;;;;;4.72;3.95;;;2.90;99.90;;;;;;5054093;28;20215;-87
2021/04/09 04:04:17;;;;;;;8.68;4.75;;;2.90;99.90;;;;;;5056847;28;20588;-87
2021/04/09 04:06:43;;;;;;;4.22;3.80;;;2.80;99.90;;;;;;5056888;28;20201;-86
2021/04/09 04:09:09;;;;;;;4.40;3.53;;;2.80;99.90;;;;;;5057010;28;20222;-87
2021/04/09 04:11:35;;;;;;;5.72;3.90;;;2.80;99.90;;;;;;5056355;28;20684;-86
2021/04/09 04:14:02;;;;;;;6.07;4.00;;;2.70;99.90;;;;;;5056245;28;20308;-88
2021/04/09 04:16:28;;;;;;;5.85;3.78;;;2.80;99.90;;;;;;5056720;28;20189;-88
2021/04/09 04:18:54;;;;;;;4.75;3.90;;;2.70;99.90;;;;;;5056957;28;20194;-89
2021/04/09 04:21:21;;;;;;;5.80;3.80;;;2.70;99.90;;;;;;5057138;28;20186;-88
2021/04/09 04:23:48;;;;;;;4.60;4.00;;;2.70;99.90;;;;;;5057056;28;20198;-89
2021/04/09 04:26:14;;;;;;;4.45;3.97;;;2.70;99.90;;;;;;5057097;28;20213;-88
2021/04/09 04:28:40;;;;;;;4.05;3.65;;;2.70;99.90;;;;;;5056630;28;20622;-86
2021/04/09 04:31:06;;;;;;;5.00;4.35;;;2.80;99.90;;;;;;5056053;28;20196;-88
2021/04/09 04:33:33;;;;;;;7.85;3.95;;;2.80;99.90;;;;;;5056111;28;20224;-88
2021/04/09 04:35:59;;;;;;;5.63;4.28;;;2.80;99.90;;;;;;5056519;28;20198;-87
2021/04/09 04:38:27;;;;;;;6.57;3.80;;;2.80;99.90;;;;;;5056713;28;20194;-88
2021/04/09 04:40:53;;;;;;;5.20;4.28;;;3.20;99.90;;;;;;5056414;28;20229;-85
2021/04/09 04:43:19;;;;;;;6.13;4.03;;;2.90;99.90;;;;;;5056514;28;20198;-85
2021/04/09 04:45:47;;;;;;;5.22;4.40;;;2.90;99.90;;;;;;5055963;28;20668;-85
2021/04/09 04:48:13;;;;;;;4.68;4.10;;;3.00;99.90;;;;;;5056078;28;20189;-88
2021/04/09 04:50:39;;;;;;;10.55;8.15;;;3.00;99.90;;;;;;5056172;28;20688;-87
2021/04/09 04:53:05;;;;;;;6.50;5.80;;;3.00;99.90;;;;;;5056203;28;20220;-88
2021/04/09 04:55:33;;;;;;;7.60;4.72;;;3.10;99.90;;;;;;5056316;28;20241;-88
2021/04/09 04:57:59;;;;;;;7.22;5.20;;;3.20;99.90;;;;;;5056171;28;20271;-88
2021/04/09 05:00:26;;;;;;;4.40;4.00;;;3.30;99.90;;;;;;5055918;28;20194;-87
2021/04/09 05:02:52;;;;;;;6.80;4.95;;;3.30;99.90;;;;;;5056471;28;20222;-92
2021/04/09 05:05:19;;;;;;;7.70;4.63;;;3.40;99.90;;;;;;5056765;28;20692;-90
2021/04/09 05:07:45;;;;;;;6.80;4.82;;;3.40;99.90;;;;;;5056085;28;20194;-91
2021/04/09 05:10:12;;;;;;;4.60;4.20;;;3.50;99.90;;;;;;5056406;28;20221;-89
2021/04/09 05:12:41;;;;;;;8.02;4.78;;;3.60;99.90;;;;;;5056362;28;20185;-90
2021/04/09 05:15:09;;;;;;;8.05;4.95;;;3.70;99.90;;;;;;5055223;28;20218;-87
2021/04/09 05:17:35;;;;;;;8.95;5.10;;;3.80;99.90;;;;;;5055594;28;20201;-87
2021/04/09 05:20:01;;;;;;;6.00;5.03;;;3.70;99.90;;;;;;5055863;28;20193;-88
2021/04/09 05:22:28;;;;;;;6.30;4.55;;;3.90;99.90;;;;;;5055558;28;20276;-88
2021/04/09 05:24:54;;;;;;;6.93;4.70;;;4.10;99.90;;;;;;5056048;28;20186;-89
2021/04/09 05:27:20;;;;;;;5.72;5.05;;;4.70;99.90;;;;;;5055337;28;20193;-88
2021/04/09 05:29:47;;;;;;;7.68;4.85;;;4.30;99.90;;;;;;5055248;28;20231;-86
2021/04/09 05:32:13;;;;;;;4.97;4.47;;;4.40;99.90;;;;;;5055511;28;20605;-89
2021/04/09 05:34:40;;;;;;;6.38;5.75;;;4.50;99.90;;;;;;5055513;28;20217;-88
2021/04/09 05:37:06;;;;;;;6.88;4.72;;;4.60;99.90;;;;;;5055646;28;20193;-86
2021/04/09 05:39:33;;;;;;;7.72;4.93;;;4.70;99.90;;;;;;5055124;28;20194;-86
2021/04/09 05:41:59;;;;;;;6.38;4.05;;;4.90;99.90;;;;;;5055008;28;20193;-88
2021/04/09 05:44:25;;;;;;;5.20;4.80;;;5.00;99.90;;;;;;5054933;28;20205;-87
2021/04/09 05:46:52;;;;;;;4.38;3.97;;;5.20;99.90;;;;;;5054769;28;20190;-86
2021/04/09 05:49:18;;;;;;;5.80;4.70;;;5.40;99.90;;;;;;5054847;28;20194;-87
2021/04/09 05:51:44;;;;;;;6.07;4.95;;;5.50;99.90;;;;;;5054679;28;20653;-85
2021/04/09 05:54:13;;;;;;;7.50;5.30;;;5.60;99.90;;;;;;5054607;28;20217;-85
2021/04/09 05:56:39;;;;;;;8.10;5.05;;;5.60;99.90;;;;;;5054306;28;20719;-86
2021/04/09 05:59:05;;;;;;;9.10;5.43;;;5.80;99.90;;;;;;5054712;28;20671;-89
2021/04/09 06:01:31;;;;;;;5.22;4.82;;;6.00;99.90;;;;;;5055342;28;20201;-88
2021/04/09 06:03:58;;;;;;;7.32;5.65;;;6.10;99.90;;;;;;5055332;28;20216;-89
2021/04/09 06:06:24;;;;;;;5.22;4.75;;;6.30;99.90;;;;;;5055167;28;20213;-89
2021/04/09 06:08:50;;;;;;;9.52;5.82;;;6.50;99.90;;;;;;5055041;28;20645;-88
2021/04/09 06:11:16;;;;;;;5.50;4.90;;;6.50;99.90;;;;;;5054846;28;20194;-88
2021/04/09 06:13:44;;;;;;;6.07;5.22;;;6.60;99.90;;;;;;5054928;28;20218;-88
2021/04/09 06:16:10;;;;;;;6.00;4.85;;;6.60;99.90;;;;;;5054458;28;20204;-92
2021/04/09 06:18:36;;;;;;;7.88;4.75;;;6.70;99.90;;;;;;5055245;28;20190;-91
2021/04/09 06:21:04;;;;;;;4.97;4.40;;;6.80;99.90;;;;;;5053847;28;20198;-91
2021/04/09 06:23:30;;;;;;;7.00;5.53;;;7.10;99.90;;;;;;5055289;28;20279;-91
2021/04/09 06:25:56;;;;;;;6.88;5.97;;;7.60;99.90;;;;;;5054008;28;20259;-90
2021/04/09 06:28:22;;;;;;;9.30;5.72;;;7.90;99.90;;;;;;5054855;28;20194;-91
2021/04/09 06:30:49;;;;;;;7.95;4.93;;;7.80;99.90;;;;;;5055026;28;20186;-92
2021/04/09 06:33:15;;;;;;;5.90;4.70;;;8.20;99.90;;;;;;5055061;28;20206;-91
2021/04/09 06:35:41;;;;;;;6.18;5.03;;;8.40;99.90;;;;;;5054673;28;20208;-88
2021/04/09 06:38:08;;;;;;;8.88;4.85;;;8.50;99.90;;;;;;5053908;28;20193;-87
2021/04/09 06:40:34;;;;;;;6.97;5.32;;;8.60;99.90;;;;;;5054187;28;20197;-90
2021/04/09 06:43:00;;;;;;;8.65;5.30;;;8.60;99.90;;;;;;5054128;28;20244;-90
2021/04/09 06:45:27;;;;;;;6.57;5.10;;;8.50;99.90;;;;;;5054590;28;20268;-91
2021/04/09 06:47:54;;;;;;;6.43;5.30;;;8.20;99.90;;;;;;5054433;28;20660;-90
2021/04/09 06:50:21;;;;;;;6.07;5.57;;;8.50;99.90;;;;;;5054191;28;20464;-90
2021/04/09 06:52:47;;;;;;;7.47;5.15;;;8.50;99.90;;;;;;5054125;28;20197;-91
2021/04/09 06:55:18;;;;;;;7.50;4.82;;;8.30;99.90;;;;;;5055130;28;20267;-92
2021/04/09 06:57:46;;;;;;;7.45;5.00;;;8.20;99.90;;;;;;5056147;28;20239;-89
2021/04/09 07:00:16;;;;;;;9.07;5.53;;;7.50;99.90;;;;;;5054147;28;20209;-87
2021/04/09 07:02:43;;;;;;;6.03;5.40;;;8.30;99.90;;;;;;5053502;28;20641;-85
2021/04/09 07:05:11;;;;;;;7.90;4.73;;;8.50;99.90;;;;;;5055644;28;20955;-93
2021/04/09 07:07:37;;;;;;;5.60;5.10;;;8.60;99.90;;;;;;5055271;28;20444;-87
2021/04/09 07:10:04;;;;;;;6.80;5.03;;;8.80;99.90;;;;;;5053085;28;20476;-86
2021/04/09 07:12:32;;;;;;;7.68;4.78;;;9.00;99.90;;;;;;5052693;28;20262;-81
2021/04/09 07:15:00;;;;;;;5.53;4.80;;;9.20;99.90;;;;;;5052791;28;20313;-85
2021/04/09 07:17:28;;;;;;;6.72;4.85;;;9.40;99.90;;;;;;5052652;28;20464;-84
2021/04/09 07:20:09;;;;;;;5.63;5.07;;;9.60;99.90;;;;;;5046318;28;20274;-84
2021/04/09 07:22:36;;;;;;;8.13;5.80;;;9.80;99.90;;;;;;5044669;28;20460;-85
2021/04/09 07:25:08;;;;;;;6.93;5.07;;;9.90;99.90;;;;;;5043461;28;20482;-85
2021/04/09 07:27:35;;;;;;;7.47;5.10;;;9.90;99.90;;;;;;5042294;28;20943;-85
2021/04/09 07:30:04;;;;;;;7.00;5.30;;;10.10;99.90;;;;;;5044792;28;20432;-82
2021/04/09 07:32:35;;;;;;;7.10;5.20;;;10.20;99.90;;;;;;5050757;28;20444;-91
2021/04/09 07:35:06;;;;;;;7.50;5.60;;;10.10;99.90;;;;;;5055871;28;20476;-93
2021/04/09 07:37:46;;;;;;;6.30;5.27;;;10.00;99.90;;;;;;5053946;28;20444;-94
2021/04/09 07:40:15;;;;;;;8.70;5.90;;;10.00;99.90;;;;;;5051484;28;20502;-88
2021/04/09 07:42:42;;;;;;;7.40;5.50;;;10.00;99.90;;;;;;5037377;28;20904;-94
2021/04/09 07:45:11;;;;;;;7.57;5.60;;;9.80;99.90;;;;;;5041414;28;20464;-93
2021/04/09 07:47:39;;;;;;;6.87;5.73;;;10.10;99.90;;;;;;5042475;28;20449;-95
2021/04/09 07:50:08;;;;;;;6.53;5.43;;;10.20;99.90;;;;;;5033317;28;20820;-88
2021/04/09 07:52:40;;;;;;;5.00;4.60;;;10.30;99.90;;;;;;5031977;28;20464;-89
2021/04/09 07:55:19;;;;;;;6.67;5.20;;;10.40;99.90;;;;;;5032639;28;20513;-89
2021/04/09 07:57:47;;;;;;;11.30;5.40;;;10.50;99.90;;;;;;5032619;28;20468;-88
2021/04/09 08:00:24;;;;;;;6.50;5.07;;;10.50;99.90;;;;;;5041941;28;20447;-86
2021/04/09 08:02:52;;;;;;;6.73;5.33;;;10.40;99.90;;;;;;5052338;28;20448;-91
2021/04/09 08:05:20;;;;;;;6.90;4.80;;;10.30;99.90;;;;;;5053214;28;20452;-91
2021/04/09 08:07:46;;;;;;;9.63;5.40;;;10.10;99.90;;;;;;5053130;28;20460;-92
2021/04/09 08:10:15;;;;;;;7.00;4.77;;;10.00;99.90;;;;;;5052756;28;20480;-91
2021/04/09 08:12:42;;;;;;;5.23;4.60;;;9.90;99.90;;;;;;5052909;28;20444;-92
2021/04/09 08:15:20;;;;;;;7.70;4.97;;;9.80;99.90;;;;;;5052717;28;20509;-90
2021/04/09 08:17:58;;;;;;;6.27;5.03;;;10.10;99.90;;;;;;5052445;28;20443;-86
2021/04/09 08:20:25;;;;;;;6.20;5.57;;;10.40;99.90;;;;;;5052347;28;20451;-91
2021/04/09 08:22:52;;;;;;;6.37;5.30;;;10.50;99.90;;;;;;5054815;28;20973;-95
2021/04/09 08:25:18;;;;;;;7.53;4.97;;;10.50;99.90;;;;;;5055672;28;20943;-93
2021/04/09 08:27:45;;;;;;;7.30;5.27;;;10.60;99.90;;;;;;5053258;28;20456;-91
2021/04/09 08:30:14;;;;;;;7.73;5.77;;;10.60;99.90;;;;;;5051745;28;20441;-85
2021/04/09 08:32:41;;;;;;;5.70;5.10;;;10.70;99.90;;;;;;5051912;28;20452;-85
2021/04/09 08:35:08;;;;;;;6.00;5.40;;;10.70;99.90;;;;;;5051998;28;20498;-85
2021/04/09 08:37:36;;;;;;;5.77;5.17;;;10.80;99.90;;;;;;5052030;28;20448;-91
2021/04/09 08:40:04;;;;;;;7.80;4.80;;;11.00;99.90;;;;;;5052673;28;20452;-93
2021/04/09 08:42:32;;;;;;;6.27;4.70;;;11.10;99.90;;;;;;5052999;28;20491;-93
2021/04/09 08:45:00;;;;;;;7.33;5.10;;;11.40;99.90;;;;;;5052239;28;20804;-92
2021/04/09 08:47:29;;;;;;;7.67;5.40;;;11.50;99.90;;;;;;5052555;28;20861;-92
2021/04/09 08:49:55;;;;;;;6.53;4.83;;;11.70;99.90;;;;;;5052827;28;20483;-82
2021/04/09 08:52:22;;;;;;;6.17;5.00;;;12.00;99.90;;;;;;5054725;28;20883;-82
2021/04/09 08:54:50;;;;;;;7.43;5.10;;;12.20;99.90;;;;;;5054203;28;20512;-82
2021/04/09 08:57:27;;;;;;;4.80;4.30;;;12.30;99.90;;;;;;5052239;28;20565;-90
2021/04/09 09:00:05;;;;;;;8.27;5.57;;;12.30;99.10;;;;;;5053492;28;20459;-91
2021/04/09 09:02:41;;;;;;;5.53;5.03;;;12.40;99.20;;;;;;5049936;28;20487;-90
2021/04/09 09:05:09;;;;;;;7.70;4.73;;;12.50;99.20;;;;;;5053352;28;20444;-89
2021/04/09 09:08:06;;;;;;;5.40;4.60;;;12.70;99.20;;;;;;5054601;28;20445;-89
2021/04/09 09:10:54;;;;;;;9.40;5.27;;;12.80;98.60;;;;;;5052677;28;20982;-83
2021/04/09 09:13:28;;;;;;;5.80;5.20;;;12.80;97.80;;;;;;5053660;28;20516;-84
2021/04/09 09:15:55;;;;;;;4.83;4.43;;;12.70;98.00;;;;;;5052307;28;20974;-84
2021/04/09 09:18:51;;;;;;;8.90;5.40;;;12.80;97.80;;;;;;5054207;28;20444;-84
2021/04/09 09:21:44;;;;;;;7.90;6.07;;;12.70;97.20;;;;;;5041541;28;21296;-85
2021/04/09 09:24:18;;;;;;;7.00;5.23;;;12.60;97.10;;;;;;5044506;28;20539;-88
2021/04/09 09:26:45;;;;;;;5.43;4.33;;;12.50;97.20;;;;;;5053533;28;20483;-89
2021/04/09 09:29:17;;;;;;;5.67;4.93;;;12.50;97.40;;;;;;5054714;28;20483;-87
2021/04/09 09:31:55;;;;;;;6.33;5.60;;;12.40;97.30;;;;;;5054663;28;20507;-89
2021/04/09 09:34:46;;;;;;;6.37;4.93;;;12.40;97.30;;;;;;5054472;28;20475;-88
2021/04/09 09:37:15;;;;;;;6.80;4.80;;;12.20;97.60;;;;;;5049326;28;21073;-93
2021/04/09 09:39:44;;;;;;;8.57;4.93;;;12.20;97.90;;;;;;5055021;28;20483;-87
2021/04/09 09:42:12;;;;;;;6.30;4.90;;;12.30;98.00;;;;;;5054266;28;20452;-88
2021/04/09 09:44:46;;;;;;;9.53;6.30;;;12.40;97.60;;;;;;5053859;28;20441;-89
2021/04/09 09:47:21;;;;;;;8.43;5.60;;;12.50;97.40;;;;;;5053090;28;20460;-85
2021/04/09 09:50:19;;;;;;;5.83;5.17;;;12.50;97.30;;;;;;5052552;28;20477;-85
2021/04/09 09:52:48;;;;;;;6.63;4.77;;;12.70;97.00;;;;;;5050257;28;20444;-83
2021/04/09 09:55:22;;;;;;;9.60;6.03;;;12.70;96.70;;;;;;5053190;28;20476;-85
2021/04/09 09:57:50;;;;;;;7.37;5.40;;;12.80;96.70;;;;;;5051735;28;20479;-83
2021/04/09 10:00:31;;;;;;;6.07;5.57;;;12.80;96.50;;;;;;5052979;28;20527;-83
2021/04/09 10:03:25;;;;;;;8.53;6.37;;;12.80;96.50;;;;;;5053186;28;20489;-81
2021/04/09 10:05:53;;;;;;;6.93;5.10;;;13.00;96.50;;;;;;5049424;28;20506;-81
2021/04/09 10:08:20;;;;;;;6.33;5.80;;;13.10;96.30;;;;;;5053472;28;20946;-81
2021/04/09 10:10:50;;;;;;;7.30;5.23;;;13.20;95.90;;;;;;5053419;28;20539;-81
2021/04/09 10:13:21;;;;;;;8.00;5.50;;;13.40;95.50;;;;;;5051281;28;20504;-83
2021/04/09 10:15:49;;;;;;;6.30;5.70;;;13.50;96.20;;;;;;5051494;28;20480;-83
2021/04/09 10:18:16;;;;;;;9.73;6.10;;;13.60;96.50;;;;;;5051633;28;20811;-81
2021/04/09 10:20:43;;;;;;;6.50;5.77;;;13.90;96.50;;;;;;5051251;28;20455;-82
2021/04/09 10:23:10;;;;;;;6.00;5.40;;;14.00;96.10;;;;;;5051568;28;20440;-82
2021/04/09 10:25:36;;;;;;;6.83;5.73;;;14.00;95.20;;;;;;5052141;28;20553;-83
2021/04/09 10:28:11;;;;;;;6.50;5.80;;;14.00;95.20;;;;;;5053377;28;20444;-82
2021/04/09 10:30:37;;;;;;;6.60;5.50;;;13.90;95.40;;;;;;5053203;28;20953;-81
2021/04/09 10:33:04;;;;;;;5.87;5.30;;;13.90;95.20;;;;;;5038476;28;20999;-81
2021/04/09 10:35:30;;;;;;;6.13;5.53;;;14.00;94.90;;;;;;5053197;28;20531;-81
2021/04/09 10:38:11;;;;;;;8.33;4.80;;;13.90;95.00;;;;;;5053137;28;20480;-81
2021/04/09 10:40:54;;;;;;;8.00;5.17;;;14.00;95.10;;;;;;5052934;28;20862;-81
2021/04/09 10:43:31;;;;;;;5.93;5.53;;;14.00;94.80;;;;;;5040612;28;20906;-81
2021/04/09 10:46:12;;;;;;;6.90;6.00;;;13.90;94.70;;;;;;5052891;28;20807;-81
2021/04/09 10:48:39;;;;;;;4.97;4.60;;;13.90;95.40;;;;;;5052623;28;20460;-82
2021/04/09 10:51:06;;;;;;;6.90;5.07;;;13.80;95.60;;;;;;5053026;28;20440;-82
2021/04/09 10:53:33;;;;;;;5.10;4.50;;;13.80;95.70;;;;;;5052661;28;20479;-82
2021/04/09 10:56:04;;;;;;;8.97;5.90;;;13.80;95.50;;;;;;5042308;28;20472;-80
2021/04/09 10:58:30;;;;;;;5.40;4.90;;;13.70;95.20;;;;;;5042864;28;20453;-80
2021/04/09 11:00:57;;;;;;;5.23;4.73;;;13.70;95.10;;;;;;5052537;28;20483;-80
2021/04/09 11:03:23;;;;;;;6.07;5.33;;;13.60;96.20;;;;;;5050602;28;20532;-79
2021/04/09 11:05:49;;;;;;;7.90;5.43;;;13.50;95.90;;;;;;5051558;28;20514;-82
2021/04/09 11:08:29;;;;;;;6.80;4.97;;;13.40;96.10;;;;;;5052120;28;20464;-82
2021/04/09 11:11:02;;;;;;;7.23;4.60;;;13.40;95.50;;;;;;5050794;28;20539;-81
2021/04/09 11:13:32;;;;;;;5.33;4.83;;;13.30;96.20;;;;;;5050206;28;20468;-81
2021/04/09 11:15:58;;;;;;;7.30;4.93;;;13.20;95.60;;;;;;5049943;28;20460;-82
2021/04/09 11:18:47;;;;;;;4.53;4.13;;;13.10;95.70;;;;;;5051921;28;20444;-82
2021/04/09 11:21:13;;;;;;;7.87;5.50;;;13.00;95.90;;;;;;5048491;28;20844;-82
2021/04/09 11:23:40;;;;;;;7.03;5.50;;;12.90;95.80;;;;;;5046673;28;20495;-82
2021/04/09 11:26:17;;;;;;;5.73;5.23;;;12.90;95.80;;;;;;5050566;28;21103;-81
2021/04/09 11:28:51;;;;;;;8.87;5.60;;;12.90;95.80;;;;;;5051310;28;20502;-81
2021/04/09 11:31:22;;;;;;;5.47;4.70;;;12.90;96.00;;;;;;5049399;28;20471;-81
2021/04/09 11:33:48;;;;;;;5.80;4.70;;;13.00;95.80;;;;;;5051759;28;20468;-81
2021/04/09 11:36:16;;;;;;;7.67;5.13;;;13.10;96.00;;;;;;5047005;28;20456;-83
2021/04/09 11:38:42;;;;;;;6.30;4.57;;;13.20;95.90;;;;;;5043230;28;20449;-82
2021/04/09 11:41:24;;;;;;;5.00;4.60;;;13.30;95.80;;;;;;5044608;28;20514;-83
2021/04/09 11:43:51;;;;;;;4.43;4.00;;;13.40;96.00;;;;;;5048748;28;20499;-82
2021/04/09 11:46:32;;;;;;;5.23;4.27;;;13.70;96.30;;;;;;5051582;28;20436;-82
2021/04/09 11:49:02;;;;;;;3.90;3.60;;;13.40;96.40;;;;;;5051547;28;20448;-81
2021/04/09 11:51:28;;;;;;;4.47;3.63;;;13.30;95.80;;;;;;5049421;28;20476;-81
2021/04/09 11:54:01;;;;;;;5.33;4.43;;;13.40;96.10;;;;;;5047209;28;20472;-81
2021/04/09 11:56:41;;;;;;;4.63;4.23;;;13.40;96.00;;;;;;5048996;28;20476;-82
2021/04/09 11:59:12;;;;;;;5.17;4.80;;;13.50;95.60;;;;;;5049440;28;20931;-82
2021/04/09 12:01:39;;;;;;;6.00;4.97;;;13.50;95.70;;;;;;5041137;28;20484;-81
2021/04/09 12:04:06;;;;;;;5.07;4.03;;;13.70;95.70;;;;;;5045644;28;20461;-81
2021/04/09 12:06:36;;;;;;;4.30;3.90;;;13.80;95.90;;;;;;5040453;28;20846;-82
2021/04/09 12:09:03;;;;;;;4.90;4.20;;;13.90;95.90;;;;;;5034647;28;20444;-82
2021/04/09 12:11:30;;;;;;;4.40;3.80;;;14.00;95.30;;;;;;5051716;28;20495;-82
2021/04/09 12:13:57;;;;;;;4.37;3.63;;;14.10;94.60;;;;;;5051644;28;20479;-82
2021/04/09 12:16:23;;;;;;;5.57;4.03;;;14.20;95.10;;;;;;5050969;28;20440;-82
2021/04/09 12:18:49;;;;;;;4.43;4.03;;;14.40;95.10;;;;;;5050867;28;20940;-83
2021/04/09 12:21:16;;;;;;;4.43;4.07;;;14.50;95.10;;;;;;5051801;28;20444;-83
2021/04/09 12:23:42;;;;;;;6.17;5.10;;;14.70;95.10;;;;;;5054451;28;20480;-83
2021/04/09 12:26:08;;;;;;;6.93;4.73;;;14.70;94.60;;;;;;5055620;28;20441;-83
2021/04/09 12:28:34;;;;;;;4.60;3.83;;;14.70;94.30;;;;;;5055663;28;20544;-83
2021/04/09 12:31:01;;;;;;;9.07;4.83;;;14.80;94.20;;;;;;5055468;28;20951;-83
2021/04/09 12:33:27;;;;;;;5.33;4.83;;;14.90;93.90;;;;;;5055473;28;20452;-82
2021/04/09 12:35:54;;;;;;;5.57;4.13;;;15.00;93.80;;;;;;5055574;28;20537;-83
2021/04/09 12:38:20;;;;;;;5.03;4.37;;;14.90;93.50;;;;;;5055513;28;20448;-83
2021/04/09 12:40:46;;;;;;;8.70;4.80;;;14.90;93.50;;;;;;5055353;28;20573;-83
2021/04/09 12:43:12;;;;;;;5.00;4.20;;;14.80;93.60;;;;;;5055381;28;20963;-83
2021/04/09 12:45:38;;;;;;;4.50;4.10;;;14.80;93.80;;;;;;5055520;28;20448;-83
2021/04/09 12:48:06;;;;;;;5.50;4.43;;;14.80;93.80;;;;;;5055418;28;20546;-83
2021/04/09 12:50:32;;;;;;;6.57;4.70;;;14.90;93.70;;;;;;5055008;28;20440;-83
2021/04/09 12:52:58;;;;;;;4.50;4.10;;;15.00;93.10;;;;;;5055118;28;20444;-83
2021/04/09 12:55:24;;;;;;;9.27;5.67;;;15.00;92.80;;;;;;5054865;28;20479;-83
2021/04/09 12:57:50;;;;;;;4.87;4.30;;;15.00;92.80;;;;;;5055268;28;20480;-83
2021/04/09 13:00:18;;;;;;;5.70;4.77;;;15.10;93.00;;;;;;5055167;28;20483;-83
2021/04/09 13:02:44;;;;;;;5.20;4.80;;;15.10;92.50;;;;;;5054942;28;20838;-83